sensor_id;sensor_type;location;lat;lon;timestamp;pressure;altitude;pressure_sealevel;temperature;humidity
9460;BME280;4768;42.664;23.240;2022-12-20T00:01:39;-9350.19;;;-2.10;100.00
9460;BME280;4768;42.664;23.240;2022-12-20T00:04:06;-9349.91;;;-2.11;100.00
9460;BME280;4768;42.664;23.240;2022-12-20T00:06:34;-9347.09;;;-2.21;100.00
9460;BME280;4768;42.664;23.240;2022-12-20T00:09:04;-9345.41;;;-2.27;100.00
9460;BME280;4768;42.664;23.240;2022-12-20T00:11:33;-9343.84;;;-2.32;100.00
9460;BME280;4768;42.664;23.240;2022-12-20T00:14:00;-9342.72;;;-2.36;100.00
9460;BME280;4768;42.664;23.240;2022-12-20T00:16:28;-9342.03;;;-2.39;100.00
9460;BME280;4768;42.664;23.240;2022-12-20T00:18:57;-9340.34;;;-2.44;100.00
9460;BME280;4768;42.664;23.240;2022-12-20T00:21:25;-9339.78;;;-2.46;100.00
9460;BME280;4768;42.664;23.240;2022-12-20T00:23:53;-9339.91;;;-2.46;100.00
9460;BME280;4768;42.664;23.240;2022-12-20T00:26:22;-9340.63;;;-2.43;100.00
9460;BME280;4768;42.664;23.240;2022-12-20T00:28:50;-9339.34;;;-2.48;100.00
9460;BME280;4768;42.664;23.240;2022-12-20T00:31:18;-9338.09;;;-2.52;100.00
9460;BME280;4768;42.664;23.240;2022-12-20T00:33:48;-9338.22;;;-2.52;100.00
9460;BME280;4768;42.664;23.240;2022-12-20T00:36:16;-9339.34;;;-2.48;100.00
9460;BME280;4768;42.664;23.240;2022-12-20T00:38:43;-9338.09;;;-2.52;100.00
9460;BME280;4768;42.664;23.240;2022-12-20T00:41:13;-9337.38;;;-2.55;100.00
9460;BME280;4768;42.664;23.240;2022-12-20T00:43:40;-9337.38;;;-2.55;100.00
9460;BME280;4768;42.664;23.240;2022-12-20T00:46:10;-9337.38;;;-2.55;100.00
9460;BME280;4768;42.664;23.240;2022-12-20T00:48:37;-9338.50;;;-2.51;100.00
9460;BME280;4768;42.664;23.240;2022-12-20T00:51:07;-9337.38;;;-2.55;100.00
9460;BME280;4768;42.664;23.240;2022-12-20T00:53:34;-9335.69;;;-2.61;100.00
9460;BME280;4768;42.664;23.240;2022-12-20T00:56:02;-9335.28;;;-2.62;100.00
9460;BME280;4768;42.664;23.240;2022-12-20T00:58:30;-9334.72;;;-2.64;100.00
9460;BME280;4768;42.664;23.240;2022-12-20T01:00:57;-9333.03;;;-2.70;100.00
9460;BME280;4768;42.664;23.240;2022-12-20T01:03:26;-9332.19;;;-2.73;100.00
9460;BME280;4768;42.664;23.240;2022-12-20T01:05:55;-9335.84;;;-2.60;100.00
9460;BME280;4768;42.664;23.240;2022-12-20T01:08:23;-9336.69;;;-2.57;100.00
9460;BME280;4768;42.664;23.240;2022-12-20T01:10:57;-9337.66;;;-2.54;100.00
9460;BME280;4768;42.664;23.240;2022-12-20T01:13:24;-9337.81;;;-2.53;100.00
9460;BME280;4768;42.664;23.240;2022-12-20T01:15:51;-9339.22;;;-2.48;100.00
9460;BME280;4768;42.664;23.240;2022-12-20T01:18:18;-9337.38;;;-2.55;100.00
9460;BME280;4768;42.664;23.240;2022-12-20T01:20:47;-9336.25;;;-2.59;100.00
9460;BME280;4768;42.664;23.240;2022-12-20T01:23:14;-9336.13;;;-2.59;100.00
9460;BME280;4768;42.664;23.240;2022-12-20T01:25:40;-9336.97;;;-2.56;100.00
9460;BME280;4768;42.664;23.240;2022-12-20T01:28:07;-9336.69;;;-2.57;100.00
9460;BME280;4768;42.664;23.240;2022-12-20T01:30:34;-9336.81;;;-2.57;100.00
9460;BME280;4768;42.664;23.240;2022-12-20T01:33:04;-9337.66;;;-2.54;100.00
9460;BME280;4768;42.664;23.240;2022-12-20T01:35:31;-9337.25;;;-2.55;100.00
9460;BME280;4768;42.664;23.240;2022-12-20T01:37:59;-9336.53;;;-2.58;100.00
9460;BME280;4768;42.664;23.240;2022-12-20T01:40:26;-9335.97;;;-2.60;100.00
9460;BME280;4768;42.664;23.240;2022-12-20T01:42:53;-9335.69;;;-2.61;100.00
9460;BME280;4768;42.664;23.240;2022-12-20T01:45:24;-9335.69;;;-2.61;100.00
9460;BME280;4768;42.664;23.240;2022-12-20T01:47:52;-9334.56;;;-2.65;100.00
9460;BME280;4768;42.664;23.240;2022-12-20T01:50:20;-9333.88;;;-2.67;100.00
9460;BME280;4768;42.664;23.240;2022-12-20T01:52:48;-9332.47;;;-2.72;100.00
9460;BME280;4768;42.664;23.240;2022-12-20T01:55:19;-9331.91;;;-2.74;100.00
9460;BME280;4768;42.664;23.240;2022-12-20T01:57:50;-9331.75;;;-2.75;100.00
9460;BME280;4768;42.664;23.240;2022-12-20T02:00:19;-9331.91;;;-2.74;100.00
9460;BME280;4768;42.664;23.240;2022-12-20T02:02:47;-9330.63;;;-2.79;100.00
9460;BME280;4768;42.664;23.240;2022-12-20T02:05:16;-9330.78;;;-2.78;100.00
9460;BME280;4768;42.664;23.240;2022-12-20T02:07:44;-9332.75;;;-2.71;100.00
9460;BME280;4768;42.664;23.240;2022-12-20T02:10:14;-9332.19;;;-2.73;100.00
9460;BME280;4768;42.664;23.240;2022-12-20T02:12:45;-9331.34;;;-2.76;100.00
9460;BME280;4768;42.664;23.240;2022-12-20T02:15:27;-9330.91;;;-2.78;100.00
9460;BME280;4768;42.664;23.240;2022-12-20T02:18:06;-9330.63;;;-2.79;100.00
9460;BME280;4768;42.664;23.240;2022-12-20T02:20:54;-9329.94;;;-2.81;100.00
9460;BME280;4768;42.664;23.240;2022-12-20T02:23:44;-9328.53;;;-2.86;100.00
9460;BME280;4768;42.664;23.240;2022-12-20T02:26:40;-9327.41;;;-2.90;100.00
9460;BME280;4768;42.664;23.240;2022-12-20T02:29:22;-9328.09;;;-2.88;100.00
9460;BME280;4768;42.664;23.240;2022-12-20T02:31:58;-9328.09;;;-2.88;100.00
9460;BME280;4768;42.664;23.240;2022-12-20T02:34:28;-9327.00;;;-2.91;100.00
9460;BME280;4768;42.664;23.240;2022-12-20T02:36:55;-9327.97;;;-2.88;100.00
9460;BME280;4768;42.664;23.240;2022-12-20T02:39:22;-9327.00;;;-2.91;100.00
9460;BME280;4768;42.664;23.240;2022-12-20T02:41:53;-9327.56;;;-2.89;100.00
9460;BME280;4768;42.664;23.240;2022-12-20T02:44:24;-9325.16;;;-2.98;100.00
9460;BME280;4768;42.664;23.240;2022-12-20T02:47:13;-9323.19;;;-3.05;100.00
9460;BME280;4768;42.664;23.240;2022-12-20T02:49:43;-9323.47;;;-3.04;100.00
9460;BME280;4768;42.664;23.240;2022-12-20T02:52:12;-9322.06;;;-3.09;100.00
9460;BME280;4768;42.664;23.240;2022-12-20T02:54:39;-9322.22;;;-3.08;100.00
9460;BME280;4768;42.664;23.240;2022-12-20T02:57:10;-9321.38;;;-3.11;100.00
9460;BME280;4768;42.664;23.240;2022-12-20T02:59:42;-9321.22;;;-3.12;100.00
9460;BME280;4768;42.664;23.240;2022-12-20T03:02:12;-9319.81;;;-3.17;100.00
9460;BME280;4768;42.664;23.240;2022-12-20T03:04:39;-9321.94;;;-3.09;100.00
9460;BME280;4768;42.664;23.240;2022-12-20T03:07:09;-9319.69;;;-3.17;100.00
9460;BME280;4768;42.664;23.240;2022-12-20T03:09:38;-9320.25;;;-3.15;100.00
9460;BME280;4768;42.664;23.240;2022-12-20T03:12:06;-9317.84;;;-3.24;100.00
9460;BME280;4768;42.664;23.240;2022-12-20T03:14:33;-9318.41;;;-3.22;100.00
9460;BME280;4768;42.664;23.240;2022-12-20T03:17:00;-9317.16;;;-3.26;100.00
9460;BME280;4768;42.664;23.240;2022-12-20T03:19:28;-9317.72;;;-3.24;100.00
9460;BME280;4768;42.664;23.240;2022-12-20T03:21:54;-9320.09;;;-3.16;100.00
9460;BME280;4768;42.664;23.240;2022-12-20T03:24:21;-9317.28;;;-3.26;100.00
9460;BME280;4768;42.664;23.240;2022-12-20T03:26:48;-9316.44;;;-3.29;100.00
9460;BME280;4768;42.664;23.240;2022-12-20T03:29:15;-9315.31;;;-3.33;100.00
9460;BME280;4768;42.664;23.240;2022-12-20T03:31:42;-9315.31;;;-3.33;100.00
9460;BME280;4768;42.664;23.240;2022-12-20T03:34:08;-9313.22;;;-3.40;100.00
9460;BME280;4768;42.664;23.240;2022-12-20T03:36:36;-9311.41;;;-3.46;100.00
9460;BME280;4768;42.664;23.240;2022-12-20T03:39:03;-9309.28;;;-3.54;100.00
9460;BME280;4768;42.664;23.240;2022-12-20T03:41:30;-9307.47;;;-3.60;100.00
9460;BME280;4768;42.664;23.240;2022-12-20T03:43:57;-9305.34;;;-3.68;100.00
9460;BME280;4768;42.664;23.240;2022-12-20T03:46:24;-9303.66;;;-3.74;100.00
9460;BME280;4768;42.664;23.240;2022-12-20T03:48:51;-9301.72;;;-3.81;100.00
9460;BME280;4768;42.664;23.240;2022-12-20T03:51:17;-9301.84;;;-3.80;100.00
9460;BME280;4768;42.664;23.240;2022-12-20T03:53:45;-9302.13;;;-3.79;100.00
9460;BME280;4768;42.664;23.240;2022-12-20T03:56:12;-9301.72;;;-3.81;100.00
9460;BME280;4768;42.664;23.240;2022-12-20T03:58:39;-9302.84;;;-3.77;100.00
9460;BME280;4768;42.664;23.240;2022-12-20T04:01:16;-9303.53;;;-3.74;100.00
9460;BME280;4768;42.664;23.240;2022-12-20T04:03:43;-9305.91;;;-3.66;100.00
9460;BME280;4768;42.664;23.240;2022-12-20T04:06:10;-9305.91;;;-3.66;100.00
9460;BME280;4768;42.664;23.240;2022-12-20T04:08:37;-9306.47;;;-3.64;100.00
9460;BME280;4768;42.664;23.240;2022-12-20T04:11:05;-9305.06;;;-3.69;100.00
9460;BME280;4768;42.664;23.240;2022-12-20T04:13:41;-9306.63;;;-3.63;100.00
9460;BME280;4768;42.664;23.240;2022-12-20T04:16:08;-9305.63;;;-3.67;100.00
9460;BME280;4768;42.664;23.240;2022-12-20T04:18:35;-9305.34;;;-3.68;100.00
9460;BME280;4768;42.664;23.240;2022-12-20T04:21:02;-9304.38;;;-3.71;100.00
9460;BME280;4768;42.664;23.240;2022-12-20T04:23:32;-9304.50;;;-3.71;100.00
9460;BME280;4768;42.664;23.240;2022-12-20T04:25:59;-9304.09;;;-3.72;100.00
9460;BME280;4768;42.664;23.240;2022-12-20T04:28:28;-9302.84;;;-3.77;100.00
9460;BME280;4768;42.664;23.240;2022-12-20T04:30:54;-9301.00;;;-3.83;100.00
9460;BME280;4768;42.664;23.240;2022-12-20T04:33:21;-9300.16;;;-3.86;100.00
9460;BME280;4768;42.664;23.240;2022-12-20T04:35:48;-9300.03;;;-3.86;100.00
9460;BME280;4768;42.664;23.240;2022-12-20T04:38:16;-9297.06;;;-3.97;100.00
9460;BME280;4768;42.664;23.240;2022-12-20T04:40:43;-9295.81;;;-4.01;100.00
9460;BME280;4768;42.664;23.240;2022-12-20T04:43:10;-9291.31;;;-4.17;100.00
9460;BME280;4768;42.664;23.240;2022-12-20T04:45:38;-9290.91;;;-4.19;100.00
9460;BME280;4768;42.664;23.240;2022-12-20T04:48:05;-9290.75;;;-4.19;100.00
9460;BME280;4768;42.664;23.240;2022-12-20T04:50:31;-9290.63;;;-4.20;100.00
9460;BME280;4768;42.664;23.240;2022-12-20T04:52:58;-9288.38;;;-4.28;100.00
9460;BME280;4768;42.664;23.240;2022-12-20T04:55:42;-9287.25;;;-4.32;100.00
9460;BME280;4768;42.664;23.240;2022-12-20T04:58:09;-9286.97;;;-4.32;100.00
9460;BME280;4768;42.664;23.240;2022-12-20T05:00:37;-9286.69;;;-4.33;100.00
9460;BME280;4768;42.664;23.240;2022-12-20T05:03:04;-9285.00;;;-4.39;100.00
9460;BME280;4768;42.664;23.240;2022-12-20T05:05:31;-9289.06;;;-4.25;100.00
9460;BME280;4768;42.664;23.240;2022-12-20T05:07:57;-9290.34;;;-4.21;100.00
9460;BME280;4768;42.664;23.240;2022-12-20T05:10:24;-9286.97;;;-4.32;100.00
9460;BME280;4768;42.664;23.240;2022-12-20T05:12:51;-9287.09;;;-4.32;100.00
9460;BME280;4768;42.664;23.240;2022-12-20T05:15:18;-9287.53;;;-4.31;100.00
9460;BME280;4768;42.664;23.240;2022-12-20T05:17:46;-9285.84;;;-4.36;100.00
9460;BME280;4768;42.664;23.240;2022-12-20T05:20:13;-9284.72;;;-4.40;100.00
9460;BME280;4768;42.664;23.240;2022-12-20T05:22:40;-9283.31;;;-4.45;100.00
9460;BME280;4768;42.664;23.240;2022-12-20T05:25:24;-9281.22;;;-4.53;100.00
9460;BME280;4768;42.664;23.240;2022-12-20T05:28:08;-9278.25;;;-4.63;100.00
9460;BME280;4768;42.664;23.240;2022-12-20T05:30:35;-9278.81;;;-4.61;100.00
9460;BME280;4768;42.664;23.240;2022-12-20T05:33:03;-9276.44;;;-4.70;100.00
9460;BME280;4768;42.664;23.240;2022-12-20T05:35:30;-9273.91;;;-4.79;100.00
9460;BME280;4768;42.664;23.240;2022-12-20T05:37:56;-9271.53;;;-4.87;100.00
9460;BME280;4768;42.664;23.240;2022-12-20T05:40:23;-9269.16;;;-4.95;100.00
9460;BME280;4768;42.664;23.240;2022-12-20T05:42:50;-9267.19;;;-5.02;100.00
9460;BME280;4768;42.664;23.240;2022-12-20T05:45:16;-9271.25;;;-4.88;100.00
9460;BME280;4768;42.664;23.240;2022-12-20T05:47:43;-9270.84;;;-4.89;100.00
9460;BME280;4768;42.664;23.240;2022-12-20T05:50:12;-9266.75;;;-5.04;100.00
9460;BME280;4768;42.664;23.240;2022-12-20T05:52:38;-9263.25;;;-5.16;100.00
9460;BME280;4768;42.664;23.240;2022-12-20T05:55:06;-9263.69;;;-5.15;100.00
9460;BME280;4768;42.664;23.240;2022-12-20T05:57:33;-9261.44;;;-5.23;100.00
9460;BME280;4768;42.664;23.240;2022-12-20T06:00:00;-9257.78;;;-5.35;100.00
9460;BME280;4768;42.664;23.240;2022-12-20T06:02:28;-9258.34;;;-5.33;100.00
9460;BME280;4768;42.664;23.240;2022-12-20T06:04:55;-9259.34;;;-5.30;100.00
9460;BME280;4768;42.664;23.240;2022-12-20T06:07:24;-9262.84;;;-5.18;100.00
9460;BME280;4768;42.664;23.240;2022-12-20T06:09:53;-9266.34;;;-5.05;100.00
9460;BME280;4768;42.664;23.240;2022-12-20T06:12:20;-9274.19;;;-4.78;100.00
9460;BME280;4768;42.664;23.240;2022-12-20T06:14:47;-9277.00;;;-4.68;100.00
9460;BME280;4768;42.664;23.240;2022-12-20T06:17:14;-9280.38;;;-4.56;100.00
9460;BME280;4768;42.664;23.240;2022-12-20T06:19:40;-9280.50;;;-4.55;100.00
9460;BME280;4768;42.664;23.240;2022-12-20T06:22:07;-9283.19;;;-4.46;100.00
9460;BME280;4768;42.664;23.240;2022-12-20T06:24:35;-9284.72;;;-4.40;100.00
9460;BME280;4768;42.664;23.240;2022-12-20T06:27:03;-9287.09;;;-4.32;100.00
9460;BME280;4768;42.664;23.240;2022-12-20T06:29:31;-9290.75;;;-4.19;100.00
9460;BME280;4768;42.664;23.240;2022-12-20T06:31:58;-9294.25;;;-4.07;100.00
9460;BME280;4768;42.664;23.240;2022-12-20T06:34:25;-9296.94;;;-3.97;100.00
9460;BME280;4768;42.664;23.240;2022-12-20T06:36:51;-9298.63;;;-3.91;100.00
9460;BME280;4768;42.664;23.240;2022-12-20T06:39:18;-9301.72;;;-3.81;100.00
9460;BME280;4768;42.664;23.240;2022-12-20T06:41:46;-9304.38;;;-3.71;100.00
9460;BME280;4768;42.664;23.240;2022-12-20T06:44:13;-9308.03;;;-3.58;100.00
9460;BME280;4768;42.664;23.240;2022-12-20T06:46:40;-9310.13;;;-3.51;100.00
9460;BME280;4768;42.664;23.240;2022-12-20T06:49:07;-9311.69;;;-3.45;100.00
9460;BME280;4768;42.664;23.240;2022-12-20T06:51:34;-9310.41;;;-3.50;100.00
9460;BME280;4768;42.664;23.240;2022-12-20T06:54:00;-9314.34;;;-3.36;100.00
9460;BME280;4768;42.664;23.240;2022-12-20T06:56:27;-9318.69;;;-3.21;100.00
9460;BME280;4768;42.664;23.240;2022-12-20T06:58:55;-9322.50;;;-3.07;100.00
9460;BME280;4768;42.664;23.240;2022-12-20T07:01:22;-9327.97;;;-2.88;100.00
9460;BME280;4768;42.664;23.240;2022-12-20T07:03:48;-9329.66;;;-2.82;100.00
9460;BME280;4768;42.664;23.240;2022-12-20T07:06:15;-9332.59;;;-2.72;100.00
9460;BME280;4768;42.664;23.240;2022-12-20T07:08:42;-9334.72;;;-2.64;100.00
9460;BME280;4768;42.664;23.240;2022-12-20T07:11:08;-9337.25;;;-2.55;100.00
9460;BME280;4768;42.664;23.240;2022-12-20T07:13:36;-9331.34;;;-2.76;100.00
9460;BME280;4768;42.664;23.240;2022-12-20T07:16:04;-9328.41;;;-2.87;100.00
9460;BME280;4768;42.664;23.240;2022-12-20T07:18:31;-9336.81;;;-2.57;100.00
9460;BME280;4768;42.664;23.240;2022-12-20T07:21:00;-9335.13;;;-2.63;100.00
9460;BME280;4768;42.664;23.240;2022-12-20T07:23:27;-9333.31;;;-2.69;100.00
9460;BME280;4768;42.664;23.240;2022-12-20T07:25:54;-9329.78;;;-2.82;100.00
9460;BME280;4768;42.664;23.240;2022-12-20T07:28:21;-9326.00;;;-2.95;100.00
9460;BME280;4768;42.664;23.240;2022-12-20T07:30:48;-9332.19;;;-2.73;100.00
9460;BME280;4768;42.664;23.240;2022-12-20T07:33:16;-9342.03;;;-2.39;100.00
9460;BME280;4768;42.664;23.240;2022-12-20T07:35:43;-9331.22;;;-2.77;100.00
9460;BME280;4768;42.664;23.240;2022-12-20T07:38:11;-9337.94;;;-2.53;100.00
9460;BME280;4768;42.664;23.240;2022-12-20T07:40:39;-9346.38;;;-2.23;100.00
9460;BME280;4768;42.664;23.240;2022-12-20T07:43:07;-9351.16;;;-2.06;100.00
9460;BME280;4768;42.664;23.240;2022-12-20T07:45:34;-9351.88;;;-2.04;100.00
9460;BME280;4768;42.664;23.240;2022-12-20T07:48:02;-9349.91;;;-2.11;100.00
9460;BME280;4768;42.664;23.240;2022-12-20T07:50:30;-9349.47;;;-2.12;100.00
9460;BME280;4768;42.664;23.240;2022-12-20T07:52:58;-9348.50;;;-2.16;100.00
9460;BME280;4768;42.664;23.240;2022-12-20T07:55:25;-9344.00;;;-2.32;100.00
9460;BME280;4768;42.664;23.240;2022-12-20T07:57:57;-9341.03;;;-2.42;100.00
9460;BME280;4768;42.664;23.240;2022-12-20T08:00:26;-9343.16;;;-2.35;100.00
9460;BME280;4768;42.664;23.240;2022-12-20T08:02:56;-9351.72;;;-2.04;100.00
9460;BME280;4768;42.664;23.240;2022-12-20T08:05:25;-9351.59;;;-2.05;100.00
9460;BME280;4768;42.664;23.240;2022-12-20T08:07:55;-9348.22;;;-2.17;100.00
9460;BME280;4768;42.664;23.240;2022-12-20T08:10:24;-9347.78;;;-2.18;100.00
9460;BME280;4768;42.664;23.240;2022-12-20T08:12:51;-9353.13;;;-1.99;100.00
9460;BME280;4768;42.664;23.240;2022-12-20T08:15:18;-9352.16;;;-2.03;100.00
9460;BME280;4768;42.664;23.240;2022-12-20T08:17:47;-9357.91;;;-1.83;100.00
9460;BME280;4768;42.664;23.240;2022-12-20T08:20:15;-9354.69;;;-1.94;100.00
9460;BME280;4768;42.664;23.240;2022-12-20T08:22:41;-9356.22;;;-1.89;100.00
9460;BME280;4768;42.664;23.240;2022-12-20T08:25:09;-9361.16;;;-1.71;100.00
9460;BME280;4768;42.664;23.240;2022-12-20T08:27:37;-9352.44;;;-2.02;100.00
9460;BME280;4768;42.664;23.240;2022-12-20T08:30:05;-9361.84;;;-1.69;100.00
9460;BME280;4768;42.664;23.240;2022-12-20T08:32:32;-9358.63;;;-1.80;100.00
9460;BME280;4768;42.664;23.240;2022-12-20T08:35:00;-9363.53;;;-1.63;100.00
9460;BME280;4768;42.664;23.240;2022-12-20T08:37:27;-9358.19;;;-1.82;100.00
9460;BME280;4768;42.664;23.240;2022-12-20T08:39:54;-9354.41;;;-1.95;100.00
9460;BME280;4768;42.664;23.240;2022-12-20T08:42:22;-9352.44;;;-2.02;100.00
9460;BME280;4768;42.664;23.240;2022-12-20T08:44:48;-9360.03;;;-1.75;100.00
9460;BME280;4768;42.664;23.240;2022-12-20T08:47:15;-9372.81;;;-1.30;100.00
9460;BME280;4768;42.664;23.240;2022-12-20T08:49:42;-9368.75;;;-1.45;100.00
9460;BME280;4768;42.664;23.240;2022-12-20T08:52:09;-9366.91;;;-1.51;100.00
9460;BME280;4768;42.664;23.240;2022-12-20T08:54:37;-9356.38;;;-1.88;100.00
9460;BME280;4768;42.664;23.240;2022-12-20T08:57:03;-9363.69;;;-1.62;100.00
9460;BME280;4768;42.664;23.240;2022-12-20T08:59:31;-9365.09;;;-1.57;100.00
9460;BME280;4768;42.664;23.240;2022-12-20T09:01:58;-9357.50;;;-1.84;100.00
9460;BME280;4768;42.664;23.240;2022-12-20T09:04:25;-9362.13;;;-1.68;100.00
9460;BME280;4768;42.664;23.240;2022-12-20T09:06:51;-9366.22;;;-1.53;100.00
9460;BME280;4768;42.664;23.240;2022-12-20T09:09:18;-9368.59;;;-1.45;100.00
9460;BME280;4768;42.664;23.240;2022-12-20T09:11:45;-9372.69;;;-1.31;100.00
9460;BME280;4768;42.664;23.240;2022-12-20T09:14:11;-9377.59;;;-1.13;100.00
9460;BME280;4768;42.664;23.240;2022-12-20T09:16:40;-9379.56;;;-1.06;100.00
9460;BME280;4768;42.664;23.240;2022-12-20T09:19:06;-9385.91;;;-0.84;100.00
9460;BME280;4768;42.664;23.240;2022-12-20T09:21:33;-9372.81;;;-1.30;100.00
9460;BME280;4768;42.664;23.240;2022-12-20T09:24:00;-9378.03;;;-1.12;100.00
9460;BME280;4768;42.664;23.240;2022-12-20T09:26:27;-9373.81;;;-1.27;100.00
9460;BME280;4768;42.664;23.240;2022-12-20T09:28:55;-9386.31;;;-0.83;100.00
9460;BME280;4768;42.664;23.240;2022-12-20T09:31:24;-9397.31;;;-0.44;100.00
9460;BME280;4768;42.664;23.240;2022-12-20T09:33:54;-9401.97;;;-0.28;100.00
9460;BME280;4768;42.664;23.240;2022-12-20T09:36:23;-9402.81;;;-0.25;100.00
9460;BME280;4768;42.664;23.240;2022-12-20T09:38:50;-9384.38;;;-0.90;100.00
9460;BME280;4768;42.664;23.240;2022-12-20T09:41:25;-9382.81;;;-0.95;100.00
9460;BME280;4768;42.664;23.240;2022-12-20T09:43:54;-9389.56;;;-0.71;100.00
9460;BME280;4768;42.664;23.240;2022-12-20T09:46:21;-9391.41;;;-0.65;100.00
9460;BME280;4768;42.664;23.240;2022-12-20T09:48:49;-9394.50;;;-0.54;100.00
9460;BME280;4768;42.664;23.240;2022-12-20T09:51:28;-9405.06;;;-0.17;100.00
9460;BME280;4768;42.664;23.240;2022-12-20T09:54:07;-9394.91;;;-0.52;100.00
9460;BME280;4768;42.664;23.240;2022-12-20T09:56:43;-9395.19;;;-0.51;100.00
9460;BME280;4768;42.664;23.240;2022-12-20T09:59:12;-9390.41;;;-0.68;100.00
9460;BME280;4768;42.664;23.240;2022-12-20T10:01:42;-9392.53;;;-0.61;100.00
9460;BME280;4768;42.664;23.240;2022-12-20T10:04:15;-9401.53;;;-0.29;100.00
9460;BME280;4768;42.664;23.240;2022-12-20T10:06:55;-9410.28;;;0.01;100.00
9460;BME280;4768;42.664;23.240;2022-12-20T10:09:41;-9406.03;;;-0.13;100.00
9460;BME280;4768;42.664;23.240;2022-12-20T10:12:20;-9423.09;;;0.47;100.00
9460;BME280;4768;42.664;23.240;2022-12-20T10:15:13;-9425.63;;;0.55;100.00
9460;BME280;4768;42.664;23.240;2022-12-20T10:17:53;-9431.97;;;0.78;100.00
9460;BME280;4768;42.664;23.240;2022-12-20T10:20:36;-9429.28;;;0.68;100.00
9460;BME280;4768;42.664;23.240;2022-12-20T10:23:13;-9434.34;;;0.86;100.00
9460;BME280;4768;42.664;23.240;2022-12-20T10:25:42;-9415.47;;;0.20;100.00
9460;BME280;4768;42.664;23.240;2022-12-20T10:28:13;-9410.81;;;0.03;100.00
9460;BME280;4768;42.664;23.240;2022-12-20T10:30:41;-9406.47;;;-0.12;100.00
9460;BME280;4768;42.664;23.240;2022-12-20T10:33:15;-9422.25;;;0.44;100.00
9460;BME280;4768;42.664;23.240;2022-12-20T10:35:42;-9428.00;;;0.64;100.00
9460;BME280;4768;42.664;23.240;2022-12-20T10:38:12;-9424.78;;;0.52;100.00
9460;BME280;4768;42.664;23.240;2022-12-20T10:40:44;-9421.38;;;0.41;100.00
9460;BME280;4768;42.664;23.240;2022-12-20T10:43:15;-9412.09;;;0.08;100.00
9460;BME280;4768;42.664;23.240;2022-12-20T10:45:43;-9424.78;;;0.52;100.00
9460;BME280;4768;42.664;23.240;2022-12-20T10:48:25;-9433.94;;;0.85;100.00
9460;BME280;4768;42.664;23.240;2022-12-20T10:50:55;-9420.84;;;0.39;100.00
9460;BME280;4768;42.664;23.240;2022-12-20T10:53:24;-9418.44;;;0.30;100.00
9460;BME280;4768;42.664;23.240;2022-12-20T10:55:52;-9427.88;;;0.63;100.00
9460;BME280;4768;42.664;23.240;2022-12-20T10:58:30;-9439.00;;;1.02;100.00
9460;BME280;4768;42.664;23.240;2022-12-20T11:01:12;-9440.41;;;1.07;100.00
9460;BME280;4768;42.664;23.240;2022-12-20T11:03:55;-9433.94;;;0.85;100.00
9460;BME280;4768;42.664;23.240;2022-12-20T11:06:25;-9440.41;;;1.07;100.00
9460;BME280;4768;42.664;23.240;2022-12-20T11:09:11;-9450.41;;;1.42;100.00
9460;BME280;4768;42.664;23.240;2022-12-20T11:11:38;-9449.44;;;1.39;100.00
9460;BME280;4768;42.664;23.240;2022-12-20T11:14:13;-9435.06;;;0.89;100.00
9460;BME280;4768;42.664;23.240;2022-12-20T11:16:49;-9435.06;;;0.89;100.00
9460;BME280;4768;42.664;23.240;2022-12-20T11:19:30;-9438.31;;;1.00;100.00
9460;BME280;4768;42.664;23.240;2022-12-20T11:22:06;-9444.50;;;1.22;100.00
9460;BME280;4768;42.664;23.240;2022-12-20T11:24:44;-9444.50;;;1.22;100.00
9460;BME280;4768;42.664;23.240;2022-12-20T11:27:21;-9447.75;;;1.33;100.00
9460;BME280;4768;42.664;23.240;2022-12-20T11:30:05;-9446.47;;;1.29;100.00
9460;BME280;4768;42.664;23.240;2022-12-20T11:32:46;-9448.44;;;1.36;100.00
9460;BME280;4768;42.664;23.240;2022-12-20T11:35:19;-9454.09;;;1.55;100.00
9460;BME280;4768;42.664;23.240;2022-12-20T11:37:53;-5068.19;;;1.18;100.00
9460;BME280;4768;42.664;23.240;2022-12-20T11:40:30;-4396.88;;;1.28;100.00
9460;BME280;4768;42.664;23.240;2022-12-20T11:43:19;-3045.56;;;1.05;100.00
9460;BME280;4768;42.664;23.240;2022-12-20T11:46:04;-3717.53;;;0.97;100.00
9460;BME280;4768;42.664;23.240;2022-12-20T11:48:47;-4730.91;;;1.15;100.00
9460;BME280;4768;42.664;23.240;2022-12-20T11:51:21;-4393.06;;;1.09;100.00
9460;BME280;4768;42.664;23.240;2022-12-20T11:53:53;-5745.03;;;1.34;100.00
9460;BME280;4768;42.664;23.240;2022-12-20T11:56:25;-4064.78;;;1.51;100.00
9460;BME280;4768;42.664;23.240;2022-12-20T11:58:59;2346.03;;;1.17;100.00
9460;BME280;4768;42.664;23.240;2022-12-20T12:01:31;-19.22;;;1.51;100.00
9460;BME280;4768;42.664;23.240;2022-12-20T12:04:06;2679.50;;;1.63;100.00
9460;BME280;4768;42.664;23.240;2022-12-20T12:06:38;9101.28;;;1.47;100.00
9460;BME280;4768;42.664;23.240;2022-12-20T12:09:15;9439.88;;;1.61;100.00
9460;BME280;4768;42.664;23.240;2022-12-20T12:11:48;9440.50;;;1.87;100.00
9460;BME280;4768;42.664;23.240;2022-12-20T12:14:28;13505.84;;;1.96;100.00
9460;BME280;4768;42.664;23.240;2022-12-20T12:16:59;21302.44;;;1.55;100.00
9460;BME280;4768;42.664;23.240;2022-12-20T12:19:29;12150.59;;;2.01;100.00
9460;BME280;4768;42.664;23.240;2022-12-20T12:22:00;15879.81;;;1.98;100.00
9460;BME280;4768;42.664;23.240;2022-12-20T12:24:33;20288.88;;;1.80;100.00
9460;BME280;4768;42.664;23.240;2022-12-20T12:27:06;19610.38;;;1.83;100.00
9460;BME280;4768;42.664;23.240;2022-12-20T12:29:37;12489.94;;;2.07;100.00
9460;BME280;4768;42.664;23.240;2022-12-20T12:32:09;12829.66;;;2.17;100.00
9460;BME280;4768;42.664;23.240;2022-12-20T12:34:49;27768.34;;;1.81;100.00
9460;BME280;4768;42.664;23.240;2022-12-20T12:37:33;29804.47;;;1.63;100.00
9460;BME280;4768;42.664;23.240;2022-12-20T12:40:18;25386.38;;;1.80;100.00
9460;BME280;4768;42.664;23.240;2022-12-20T12:45:56;31879.75;;;2.44;100.00
9460;BME280;4768;42.664;23.240;2022-12-20T12:48:27;47934.31;;;2.19;100.00
9460;BME280;4768;42.664;23.240;2022-12-20T12:50:57;46922.84;;;2.44;100.00
9460;BME280;4768;42.664;23.240;2022-12-20T12:53:32;64428.97;;;2.29;100.00
9460;BME280;4768;42.664;23.240;2022-12-20T12:56:29;81322.84;;;2.12;100.00
9460;BME280;4768;42.664;23.240;2022-12-20T13:02:51;98348.59;;;2.34;100.00
9460;BME280;4768;42.664;23.240;2022-12-20T13:05:32;119261.28;;;2.25;100.00
9460;BME280;4768;42.664;23.240;2022-12-20T13:08:00;122071.25;;;2.31;100.00
9460;BME280;4768;42.664;23.240;2022-12-20T13:10:56;145168.78;;;1.93;100.00
9460;BME280;4768;42.664;23.240;2022-12-20T13:13:23;140625.00;;;2.07;100.00
9460;BME280;4768;42.664;23.240;2022-12-20T13:15:51;154389.72;;;2.14;100.00
9460;BME280;4768;42.664;23.240;2022-12-20T13:18:31;153002.31;;;2.25;100.00
9460;BME280;4768;42.664;23.240;2022-12-20T13:21:34;156198.03;;;2.31;100.00
9460;BME280;4768;42.664;23.240;2022-12-20T13:24:31;160800.28;;;2.33;100.00
9460;BME280;4768;42.664;23.240;2022-12-20T13:27:01;167519.81;;;2.29;100.00